Two Buttes, CO (81084)

01:37 AM MDT del 23 Luglio 2014 (GMT -0600)
Schenck Farms (KCOHOLLY3) Alt. 3619 ft | 37.90 °N, 102.11 °W | Change Station

Current weather conditions updated 7 minutes ago

Sereno
Sereno
69.0 °F
Sembra 69.0 °F
N
5.0
Vento Variabile Vento da ESE
Gusts 8.0 mph

Oggi si prevede un aumento della temperatura rispetto a ieri.

Oggi
Massima -- | Minima -- °F
--% Possibilità di precip.
Ieri
Massima -- | Minima -- °F
Precip. -- in
5:45 AM 8:05 PM
Luna calante, 12% visible
Pressione 30.04 in
Visibilità 8.0 miglia
Nuvole Sereno
Punto di rugiada 63 °F
Umidità 80%
Piovosità 0.00 in
Spessore del manto nevoso Non disponibile.
Raggi UV 0 fuori da 12
Polline 5.50 fuori da 12
Qualità dell'aria Non disponibile.
Flu Activity Non disponibile.
METAR KLAA 230653Z AUTO 00000KT 8SM CLR 23/17 A3021 RMK AO2 SLP170 T02330167 403780183

More Conditions Fewer Conditions

Pressione 30.04 in
Visibilità 8.0 miglia
Nuvole Sereno
Punto di rugiada 63 °F
Umidità 80%
Piovosità 0.00 in
Spessore del manto nevoso Non disponibile.
Raggi UV 0 fuori da 12
Polline 5.50 fuori da 12
Qualità dell'aria Non disponibile.
Flu Activity Non disponibile.
METAR KLAA 230653Z AUTO 00000KT 8SM CLR 23/17 A3021 RMK AO2 SLP170 T02330167 403780183

More Conditions Fewer Conditions

10-Day Weather Forecast

Almanac

Astronomia

Jul. 23, 2014 Alba Tramonto
Ora attuale 05:45 MDT 20:05 MDT
Crepuscolo civile 05:15 MDT 20:35 MDT
Crepuscolo nautico 04:39 MDT 21:11 MDT
Crepuscolo astronomico 03:58 MDT 21:51 MDT
Luna 03:05 MDT 17:36 MDT
Estensione della luce visibile 15h 19m
Lunghezza del giorno
14h 19m
Tomorrow will be 1m 32s shorter.
Luna calante, 12% of the Moon is Illuminated
Oggi
Luna calante
Lug 26
Nuovo
Ago 3
Primo quarto
Ago 10
Luna piena
Ago 17
Ultimo quarto

Gli estremi di oggi

State Highs State Lows

Community

WunderPhotos

Upload Photos

1,736,527 foto caricate!

Nearby

Profondità neve

Stazione Profondità Altitudine
Apishapa 0 in 10000 ft
Trinchera 1 in 10860 ft
Ute Creek 0 in 10650 ft
Medano Pass 0 in 9620 ft
South Colony 0 in 10800 ft

Attività sismica

Città  Distanza Mag. Data & Ora
Non sono state riportate attività sismiche nelle vicinanze.
Minimo Magnitudo Mostrato è 2.5.

Temperature delle acque costiere

Località Temperatura
Nessun dato dalle stazioni

Stazioni meteo nelle vicinanze

Ubicazione della stazione Temp. Indice di calore Punto di rugiada Umidità Vento Precip. Alt. Aggiornato Tipo
Schenck Farms, Holly, CO 69.0 °F - 63 °F 80% ESE  a  5.0 mph 0.00 in / hr 3619 ft 1:29 AM MDT Normale
NonFedAWOS SPRINGFIELD , Springfield, CO 75 °F 76 °F 66 °F 74% Sud  a  9 mph 0.00 in / hr 4390 ft 11:55 PM MDT MADIS

Show More Stations Show Fewer Stations